Time;durP1;ratioP1;P1;durP2;ratioP2;P2;SDS_P1;SDS_P2;PMS_P1;PMS_P2;Temp;Humidity;BMP_temperature;BMP_pressure;BME280_temperature;BME280_humidity;BME280_pressure;Samples;Min_cycle;Max_cycle;Signal;HPM_P1;HPM_P2
2021/10/29 00:21:12;;;;;;;100.53;25.45;;;;;;;;;;5635858;23;20218;-96
2021/10/29 00:23:39;;;;;;;95.13;24.80;;;;;;;;;;4949349;29;20269;-96
2021/10/29 00:31:28;;;;;;;100.40;26.27;;;;;;;;;;4953881;29;20226;-96
2021/10/29 00:33:55;;;;;;;94.75;25.23;;;;;;;;;;4950893;29;20198;-96
2021/10/29 00:36:23;;;;;;;95.03;23.75;;;;;;;;;;4943784;29;20274;-95
2021/10/29 00:38:49;;;;;;;93.60;23.15;;;;;;;;;;4936651;29;20688;-96
2021/10/29 00:41:16;;;;;;;95.78;24.95;;;;;;;;;;4936336;29;20254;-95
2021/10/29 00:43:43;;;;;;;97.53;27.20;;;;;;;;;;4938677;29;20209;-96
2021/10/29 00:46:32;;;;;;;99.20;25.20;;;;;;;;;;4948061;28;20182;-96
2021/10/29 00:48:59;;;;;;;106.38;26.52;;;;;;;;;;4956142;28;20202;-96
2021/10/29 00:54:48;;;;;;;92.43;24.02;;;;;;;;;;4951611;29;20182;-96
2021/10/29 00:57:15;;;;;;;92.35;24.27;;;;;;;;;;4948956;29;20198;-96
2021/10/29 00:59:42;;;;;;;98.70;26.98;;;;;;;;;;4950489;29;20203;-96
2021/10/29 01:02:09;;;;;;;96.40;24.80;;;;;;;;;;4948890;29;20218;-96
2021/10/29 01:04:36;;;;;;;90.72;23.13;;;;;;;;;;4943603;29;20272;-96
2021/10/29 01:07:02;;;;;;;88.05;21.42;;;;;;;;;;4940361;29;20214;-95
2021/10/29 01:09:30;;;;;;;90.65;20.88;;;;;;;;;;4939800;29;20571;-95
2021/10/29 01:17:53;;;;;;;94.85;24.48;;;;;;;;;;5222892;23;20244;-95
2021/10/29 01:20:21;;;;;;;90.95;22.67;;;;;;;;;;4945145;29;20202;-94
2021/10/29 01:22:48;;;;;;;91.75;23.42;;;;;;;;;;4943312;29;20217;-95
2021/10/29 01:25:15;;;;;;;91.35;23.08;;;;;;;;;;4947963;29;20194;-95
2021/10/29 01:27:42;;;;;;;92.60;22.85;;;;;;;;;;4944161;29;20213;-95
2021/10/29 01:30:09;;;;;;;89.43;22.50;;;;;;;;;;4943766;29;20278;-94
2021/10/29 01:32:36;;;;;;;95.90;23.85;;;;;;;;;;4942974;29;20236;-96
2021/10/29 01:35:03;;;;;;;102.15;25.40;;;;;;;;;;4943281;29;20195;-94
2021/10/29 01:37:37;;;;;;;98.28;25.92;;;;;;;;;;4942946;29;20213;-94
2021/10/29 01:40:04;;;;;;;96.15;25.70;;;;;;;;;;4942510;29;20204;-95
2021/10/29 01:42:31;;;;;;;98.38;24.15;;;;;;;;;;4942934;29;20206;-94
2021/10/29 01:44:57;;;;;;;92.78;24.92;;;;;;;;;;4942030;29;20215;-95
2021/10/29 01:47:24;;;;;;;100.28;24.80;;;;;;;;;;4942976;29;20921;-94
2021/10/29 01:49:50;;;;;;;89.35;22.55;;;;;;;;;;4943160;29;20231;-93
2021/10/29 01:52:17;;;;;;;95.00;22.35;;;;;;;;;;4942604;29;20238;-94
2021/10/29 01:54:45;;;;;;;92.53;22.90;;;;;;;;;;4942615;29;20229;-94
2021/10/29 01:57:11;;;;;;;99.80;23.90;;;;;;;;;;4940216;29;20276;-94
2021/10/29 01:59:38;;;;;;;90.43;22.05;;;;;;;;;;4940962;29;20206;-94
2021/10/29 02:02:05;;;;;;;90.78;22.85;;;;;;;;;;4940648;29;20213;-95
2021/10/29 02:04:32;;;;;;;91.75;22.90;;;;;;;;;;4940803;29;20215;-93
2021/10/29 02:06:58;;;;;;;91.10;23.02;;;;;;;;;;4942570;29;20212;-95
2021/10/29 02:09:25;;;;;;;94.78;25.13;;;;;;;;;;4940798;29;20204;-94
2021/10/29 02:11:53;;;;;;;94.13;24.17;;;;;;;;;;4939982;29;20230;-94
2021/10/29 02:14:19;;;;;;;91.22;24.35;;;;;;;;;;4934729;29;20212;-94
2021/10/29 02:16:46;;;;;;;89.03;22.20;;;;;;;;;;4935560;29;20211;-95
2021/10/29 02:19:13;;;;;;;101.05;22.98;;;;;;;;;;4935337;29;20234;-95
2021/10/29 02:21:40;;;;;;;91.65;22.92;;;;;;;;;;4936128;29;20230;-95
2021/10/29 02:24:06;;;;;;;95.60;24.45;;;;;;;;;;4935603;29;20204;-95
2021/10/29 02:26:34;;;;;;;95.47;24.42;;;;;;;;;;4936544;29;20213;-95
2021/10/29 02:29:02;;;;;;;89.95;22.40;;;;;;;;;;4934073;29;20208;-96
2021/10/29 02:31:29;;;;;;;91.55;21.20;;;;;;;;;;4935528;29;20216;-95
2021/10/29 02:33:58;;;;;;;92.32;22.85;;;;;;;;;;4935912;29;20195;-96
2021/10/29 02:36:24;;;;;;;96.18;24.05;;;;;;;;;;4938695;29;20281;-95
2021/10/29 02:38:51;;;;;;;94.72;25.00;;;;;;;;;;4942545;29;20213;-96
2021/10/29 02:41:18;;;;;;;96.70;24.98;;;;;;;;;;4940484;29;20275;-95
2021/10/29 02:43:45;;;;;;;96.82;24.17;;;;;;;;;;4940017;29;20322;-95
2021/10/29 02:46:13;;;;;;;98.15;24.15;;;;;;;;;;4942462;29;20211;-95
2021/10/29 02:48:40;;;;;;;95.35;25.48;;;;;;;;;;4942727;29;20217;-96
2021/10/29 02:51:07;;;;;;;96.35;24.60;;;;;;;;;;4940404;29;20204;-96
2021/10/29 02:53:35;;;;;;;99.55;25.55;;;;;;;;;;4939299;29;20454;-95
2021/10/29 02:56:03;;;;;;;93.68;22.73;;;;;;;;;;4941499;29;20209;-96
2021/10/29 02:58:31;;;;;;;90.72;22.25;;;;;;;;;;4940686;29;20204;-95
2021/10/29 03:00:58;;;;;;;96.10;23.35;;;;;;;;;;4941948;29;20214;-96
2021/10/29 03:03:26;;;;;;;102.70;26.27;;;;;;;;;;4942142;29;21515;-96
2021/10/29 03:05:52;;;;;;;100.10;25.23;;;;;;;;;;4942160;29;20333;-96
2021/10/29 03:08:20;;;;;;;92.70;22.55;;;;;;;;;;4941445;29;20205;-96
2021/10/29 03:10:46;;;;;;;84.95;20.75;;;;;;;;;;4940434;29;20203;-95
2021/10/29 03:13:13;;;;;;;87.70;21.50;;;;;;;;;;4939109;29;20301;-95
2021/10/29 03:15:40;;;;;;;92.50;22.50;;;;;;;;;;4940850;29;20304;-95
2021/10/29 03:18:06;;;;;;;93.95;24.05;;;;;;;;;;4941771;29;20253;-95
2021/10/29 03:20:34;;;;;;;92.43;23.90;;;;;;;;;;4940778;29;20225;-95
2021/10/29 03:23:01;;;;;;;92.07;23.45;;;;;;;;;;4939406;29;20216;-96
2021/10/29 03:25:27;;;;;;;94.10;22.30;;;;;;;;;;4940290;29;20211;-95
2021/10/29 03:27:54;;;;;;;96.47;23.50;;;;;;;;;;4940144;29;20221;-96
2021/10/29 03:30:21;;;;;;;92.00;22.45;;;;;;;;;;4941435;29;20246;-96
2021/10/29 03:32:47;;;;;;;91.70;22.83;;;;;;;;;;4941769;29;20232;-96
2021/10/29 03:35:14;;;;;;;92.75;21.90;;;;;;;;;;4941781;29;20205;-96
2021/10/29 03:38:07;;;;;;;92.25;22.02;;;;;;;;;;4940199;29;20202;-94
2021/10/29 03:40:42;;;;;;;92.55;22.48;;;;;;;;;;4941396;29;21073;-96
2021/10/29 03:43:13;;;;;;;90.22;22.08;;;;;;;;;;4941710;29;20283;-95
2021/10/29 03:45:45;;;;;;;90.35;22.25;;;;;;;;;;4940616;29;20670;-96
2021/10/29 03:48:14;;;;;;;90.82;22.50;;;;;;;;;;4941813;29;20277;-94
2021/10/29 03:50:46;;;;;;;92.50;23.88;;;;;;;;;;4941864;29;20208;-95
2021/10/29 03:53:27;;;;;;;95.43;24.90;;;;;;;;;;4941275;29;20240;-95
2021/10/29 03:55:54;;;;;;;105.15;25.77;;;;;;;;;;4941333;29;20213;-94
2021/10/29 03:58:21;;;;;;;94.35;22.95;;;;;;;;;;4942728;29;20213;-95
2021/10/29 04:00:47;;;;;;;85.82;20.25;;;;;;;;;;4942686;29;20232;-95
2021/10/29 04:03:14;;;;;;;97.15;24.10;;;;;;;;;;4944454;29;20230;-94
2021/10/29 04:05:41;;;;;;;94.47;23.48;;;;;;;;;;4945005;29;20205;-95
2021/10/29 04:08:09;;;;;;;94.28;24.42;;;;;;;;;;4944218;29;20197;-95
2021/10/29 04:10:41;;;;;;;98.38;24.98;;;;;;;;;;4943122;29;20201;-93
2021/10/29 04:13:10;;;;;;;97.22;24.55;;;;;;;;;;4953199;29;20649;-94
2021/10/29 04:15:37;;;;;;;98.95;24.85;;;;;;;;;;4953000;29;20209;-94
2021/10/29 04:18:03;;;;;;;107.35;27.00;;;;;;;;;;4942595;29;20340;-94
2021/10/29 04:20:30;;;;;;;94.93;24.10;;;;;;;;;;4941897;29;20203;-93
2021/10/29 04:22:57;;;;;;;103.72;23.17;;;;;;;;;;4941711;29;20257;-93
2021/10/29 04:25:23;;;;;;;96.82;24.70;;;;;;;;;;4940833;29;20276;-94
2021/10/29 04:27:57;;;;;;;97.97;24.00;;;;;;;;;;4940114;29;20209;-93
2021/10/29 04:30:25;;;;;;;91.35;24.40;;;;;;;;;;4939960;29;20209;-94
2021/10/29 04:32:52;;;;;;;95.35;23.55;;;;;;;;;;4940208;29;20241;-94
2021/10/29 04:35:18;;;;;;;94.20;24.20;;;;;;;;;;4939649;29;20206;-95
2021/10/29 04:37:45;;;;;;;96.03;23.90;;;;;;;;;;4940377;29;20204;-94
2021/10/29 04:40:12;;;;;;;93.35;23.40;;;;;;;;;;4940401;29;20201;-94
2021/10/29 04:42:39;;;;;;;90.40;22.85;;;;;;;;;;4940993;29;20216;-95
2021/10/29 04:45:10;;;;;;;90.85;23.45;;;;;;;;;;4940940;29;20211;-95
2021/10/29 04:47:37;;;;;;;87.07;22.05;;;;;;;;;;4940021;29;20209;-96
2021/10/29 04:50:05;;;;;;;92.85;23.70;;;;;;;;;;4940804;29;20203;-95
2021/10/29 04:52:31;;;;;;;90.93;23.30;;;;;;;;;;4942219;29;20235;-94
2021/10/29 04:54:58;;;;;;;100.10;26.25;;;;;;;;;;4944405;29;20207;-95
2021/10/29 04:57:24;;;;;;;96.30;24.17;;;;;;;;;;4944217;29;20280;-94
2021/10/29 04:59:51;;;;;;;93.85;24.65;;;;;;;;;;4943109;29;20206;-94
2021/10/29 05:02:19;;;;;;;99.93;26.65;;;;;;;;;;4944343;29;20205;-94
2021/10/29 05:04:45;;;;;;;96.20;24.45;;;;;;;;;;4943828;29;20209;-95
2021/10/29 05:07:12;;;;;;;92.88;24.05;;;;;;;;;;4944300;29;20681;-94
2021/10/29 05:09:38;;;;;;;105.47;29.20;;;;;;;;;;4942883;29;20213;-94
2021/10/29 05:12:05;;;;;;;100.60;25.88;;;;;;;;;;4941241;29;20210;-95
2021/10/29 05:14:32;;;;;;;101.00;28.55;;;;;;;;;;4939818;29;20209;-94
2021/10/29 05:16:58;;;;;;;105.72;30.23;;;;;;;;;;4942562;29;20200;-95
2021/10/29 05:19:26;;;;;;;106.47;30.08;;;;;;;;;;4942205;29;20208;-94
2021/10/29 05:21:53;;;;;;;105.40;29.33;;;;;;;;;;4945642;29;20215;-94
2021/10/29 05:24:19;;;;;;;106.45;31.23;;;;;;;;;;4942731;29;20264;-94
2021/10/29 05:26:46;;;;;;;112.03;33.40;;;;;;;;;;4942096;29;20204;-94
2021/10/29 05:29:12;;;;;;;;;;;;;;;;;;4942374;29;20058;-94
2021/10/29 05:31:39;;;;;;;;;;;;;;;;;;4944051;29;19937;-96
2021/10/29 05:34:05;;;;;;;;;;;;;;;;;;4944968;29;19937;-95
2021/10/29 05:36:31;;;;;;;;;;;;;;;;;;4944772;29;19930;-95
2021/10/29 05:38:58;;;;;;;;;;;;;;;;;;4946463;29;19933;-96
2021/10/29 05:41:24;;;;;;;;;;;;;;;;;;4942669;29;19926;-96
2021/10/29 05:43:50;;;;;;;;;;;;;;;;;;4943143;29;19923;-96
2021/10/29 05:46:17;;;;;;;;;;;;;;;;;;4942437;29;19922;-96
2021/10/29 05:48:45;;;;;;;;;;;;;;;;;;4941553;29;19929;-96
2021/10/29 05:51:13;;;;;;;;;;;;;;;;;;4944111;29;19922;-96
2021/10/29 05:53:51;;;;;;;;;;;;;;;;;;4942997;29;19930;-96
2021/10/29 05:56:19;;;;;;;;;;;;;;;;;;4944356;29;20002;-96
2021/10/29 05:58:45;;;;;;;;;;;;;;;;;;4937452;29;19922;-96
2021/10/29 06:01:12;;;;;;;;;;;;;;;;;;4943040;29;19923;-96
2021/10/29 06:03:38;;;;;;;;;;;;;;;;;;4944729;29;19923;-95
2021/10/29 06:06:05;;;;;;;;;;;;;;;;;;4944248;29;19923;-95
2021/10/29 06:08:31;;;;;;;;;;;;;;;;;;4944134;29;19922;-96
2021/10/29 06:10:57;;;;;;;;;;;;;;;;;;4942190;29;19955;-96
2021/10/29 06:13:24;;;;;;;;;;;;;;;;;;4936074;29;19930;-96
2021/10/29 06:15:50;;;;;;;;;;;;;;;;;;4941202;29;19931;-96
2021/10/29 06:18:23;;;;;;;;;;;;;;;;;;4941012;29;19923;-95
2021/10/29 06:20:49;;;;;;;;;;;;;;;;;;4943638;29;19931;-95
2021/10/29 06:23:18;;;;;;;;;;;;;;;;;;4943387;29;19950;-95
2021/10/29 06:25:47;;;;;;;;;;;;;;;;;;4943962;29;19954;-95
2021/10/29 06:28:20;;;;;;;;;;;;;;;;;;4941622;29;19931;-96
2021/10/29 06:30:46;;;;;;;;;;;;;;;;;;4943518;29;19929;-96
2021/10/29 06:33:12;;;;;;;;;;;;;;;;;;4943578;29;19994;-95
2021/10/29 06:35:39;;;;;;;;;;;;;;;;;;4945121;29;19931;-96
2021/10/29 06:38:05;;;;;;;;;;;;;;;;;;4945116;29;19966;-96
2021/10/29 06:40:37;;;;;;;;;;;;;;;;;;4942635;29;19939;-96
2021/10/29 06:43:07;;;;;;;;;;;;;;;;;;4938742;29;19969;-95
2021/10/29 06:45:56;;;;;;;;;;;;;;;;;;4941918;29;19926;-95
2021/10/29 06:48:29;;;;;;;;;;;;;;;;;;4944150;29;19928;-96
2021/10/29 06:59:23;;;;;;;;;;;;;;;;;;4943044;29;19966;-96
2021/10/29 07:01:56;;;;;;;;;;;;;;;;;;4945055;29;19922;-96
2021/10/29 07:42:10;;;;;;;;;;;;;;;;;;4930627;29;19917;-96
2021/10/29 07:44:44;;;;;;;;;;;;;;;;;;4941655;29;19931;-96
2021/10/29 07:50:19;;;;;;;;;;;;;;;;;;4939000;29;19986;-96
2021/10/29 07:52:45;;;;;;;;;;;;;;;;;;4940710;29;19975;-96
2021/10/29 07:57:59;;;;;;;;;;;;;;;;;;5012355;23;19937;-96
2021/10/29 08:00:25;;;;;;;;;;;;;;;;;;4950379;29;19923;-96
2021/10/29 08:02:54;;;;;;;;;;;;;;;;;;4956064;29;19910;-96
2021/10/29 08:05:21;;;;;;;;;;;;;;;;;;4964478;28;19926;-96
2021/10/29 09:01:19;;;;;;;;;;;;;;;;;;5908437;23;19926;-96
2021/10/29 10:43:04;;;;;;;94.73;24.23;;;;;;;;;;5334767;23;20559;-96
2021/10/29 10:45:55;;;;;;;87.63;23.40;;;;;;;;;;4941519;29;20488;-96
2021/10/29 10:48:27;;;;;;;82.43;22.37;;;;;;;;;;4970473;23;20546;-96
2021/10/29 10:51:21;;;;;;;79.60;21.00;;;;;;;;;;4970335;28;20446;-94
2021/10/29 10:59:54;;;;;;;84.83;21.17;;;;;;;;;;4973169;28;20448;-96
2021/10/29 11:11:21;;;;;;;82.50;21.30;;;;;;;;;;4932261;29;20453;-96
2021/10/29 11:14:10;;;;;;;78.87;19.80;;;;;;;;;;5178884;23;20559;-96
2021/10/29 11:16:40;;;;;;;82.77;20.03;;;;;;;;;;4994953;23;20501;-96
2021/10/29 11:19:09;;;;;;;81.63;21.83;;;;;;;;;;4963513;29;20482;-96
2021/10/29 11:21:46;;;;;;;88.27;20.93;;;;;;;;;;4958827;29;20447;-96
2021/10/29 11:25:00;;;;;;;79.53;21.13;;;;;;;;;;4960614;29;20439;-96
2021/10/29 11:27:41;;;;;;;83.50;20.00;;;;;;;;;;4963877;29;20428;-96
2021/10/29 11:30:17;;;;;;;82.57;20.40;;;;;;;;;;4959731;29;20450;-96
2021/10/29 11:32:55;;;;;;;76.27;20.70;;;;;;;;;;5086781;23;20482;-96
2021/10/29 11:38:12;;;;;;;80.13;20.27;;;;;;;;;;4957271;29;20532;-95
2021/10/29 11:40:41;;;;;;;77.43;19.97;;;;;;;;;;4951099;29;20468;-96
2021/10/29 11:43:24;;;;;;;77.10;18.40;;;;;;;;;;4953437;29;20503;-95
2021/10/29 11:45:53;;;;;;;79.27;20.10;;;;;;;;;;5040634;23;20509;-96
2021/10/29 11:57:44;;;;;;;74.40;19.63;;;;;;;;;;4974953;28;20449;-96
2021/10/29 12:08:11;;;;;;;83.43;19.00;;;;;;;;;;5109045;23;20559;-95
2021/10/29 12:21:49;;;;;;;92.50;24.00;;;;;;;;;;5415717;23;20455;-95
2021/10/29 12:24:17;;;;;;;79.47;21.57;;;;;;;;;;4961981;29;20472;-95
2021/10/29 12:26:54;;;;;;;95.97;31.30;;;;;;;;;;4958617;29;20453;-96
2021/10/29 12:29:23;;;;;;;77.77;20.57;;;;;;;;;;4962162;28;20512;-96
2021/10/29 13:03:55;;;;;;;73.10;18.60;;;;;;;;;;4974856;28;20446;-96
2021/10/29 13:06:22;;;;;;;72.20;18.53;;;;;;;;;;4968290;29;20452;-95
2021/10/29 13:14:52;;;;;;;72.10;18.50;;;;;;;;;;5832214;23;21509;31
2021/10/29 13:17:45;;;;;;;76.03;18.87;;;;;;;;;;4938534;29;20455;-96
2021/10/29 14:29:12;;;;;;;77.67;18.97;;;;;;;;;;4975919;28;20438;-96
2021/10/29 14:31:45;;;;;;;77.63;20.20;;;;;;;;;;4976318;28;20450;-96
2021/10/29 14:34:15;;;;;;;78.67;18.80;;;;;;;;;;5046200;23;20494;-96
2021/10/29 14:40:05;;;;;;;80.80;23.90;;;;;;;;;;5216652;23;20559;-96
2021/10/29 14:42:48;;;;;;;83.20;22.37;;;;;;;;;;4957596;29;20489;-96
2021/10/29 15:57:24;;;;;;;92.30;24.70;;;;;;;;;;6201938;22;2048403;-94
2021/10/29 15:59:58;;;;;;;90.30;25.57;;;;;;;;;;6327835;22;20173;-95
2021/10/29 16:02:36;;;;;;;95.37;24.17;;;;;;;;;;6329456;22;20403;-96
2021/10/29 16:19:23;;;;;;;90.33;23.57;;;;;;;;;;6302162;22;20484;-96
2021/10/29 16:21:50;;;;;;;84.33;24.40;;;;;;;;;;6329057;22;20430;-96
2021/10/29 16:24:17;;;;;;;84.07;23.30;;;;;;;;;;6326330;22;20405;-96
2021/10/29 16:26:46;;;;;;;93.10;24.40;;;;;;;;;;6334489;22;20497;-96
2021/10/29 16:29:19;;;;;;;88.40;26.63;;;;;;;;;;6334556;22;20420;-96
2021/10/29 16:31:48;;;;;;;93.40;28.17;;;;;;;;;;6334979;22;20410;-96
2021/10/29 16:36:55;;;;;;;94.80;29.00;;;;;;;;;;6327661;22;20401;-95
2021/10/29 16:42:04;;;;;;;89.03;24.17;;;;;;;;;;6246522;22;20439;-96
2021/10/29 16:44:50;;;;;;;93.23;29.30;;;;;;;;;;6261229;22;20455;-96
2021/10/29 16:47:19;;;;;;;91.07;26.70;;;;;;;;;;6271305;22;20418;-96
2021/10/29 16:52:45;;;;;;;89.17;24.80;;;;;;;;;;6197881;22;20461;-96
2021/10/29 17:03:07;;;;;;;98.40;23.20;;;;;;;;;;6234978;22;20529;-96
2021/10/29 17:05:34;;;;;;;84.60;24.30;;;;;;;;;;6259479;23;20433;-96
2021/10/29 17:08:01;;;;;;;87.47;25.10;;;;;;;;;;6261016;23;20415;-96
2021/10/29 17:10:42;;;;;;;83.90;24.00;;;;;;;;;;6228776;22;20468;-96
2021/10/29 17:31:18;;;;;;;105.43;29.53;;;;;;;;;;6266683;22;20456;-96
2021/10/29 17:33:46;;;;;;;92.93;26.80;;;;;;;;;;6275071;22;20386;-96
2021/10/29 17:49:11;;;;;;;91.30;28.10;;;;;;;;;;6202815;22;20975;-96
2021/10/29 18:00:09;;;;;;;90.70;27.10;;;;;;;;;;6243428;23;20410;-96
2021/10/29 18:02:36;;;;;;;95.20;28.00;;;;;;;;;;6243480;23;20466;-96
2021/10/29 18:18:20;;;;;;;92.70;28.97;;;;;;;;;;6239259;22;20999;-96
2021/10/29 18:23:34;;;;;;;99.53;31.80;;;;;;;;;;6239655;22;20407;-96
2021/10/29 18:34:32;;;;;;;94.47;29.10;;;;;;;;;;6257204;22;20251;-96
2021/10/29 18:37:05;;;;;;;96.87;30.53;;;;;;;;;;6265594;23;20509;-96
2021/10/29 18:42:01;;;;;;;111.00;33.60;;;;;;;;;;6225767;22;20435;-96
2021/10/29 18:44:27;;;;;;;101.57;30.37;;;;;;;;;;6205651;23;20403;-96
2021/10/29 18:46:54;;;;;;;97.70;29.93;;;;;;;;;;6202205;23;20517;-96
2021/10/29 18:49:24;;;;;;;102.33;31.00;;;;;;;;;;6206279;23;20410;-96
2021/10/29 18:51:53;;;;;;;98.73;30.97;;;;;;;;;;6211525;23;20505;-96
2021/10/29 18:56:55;;;;;;;97.50;28.57;;;;;;;;;;6248793;22;20465;-96
2021/10/29 18:59:21;;;;;;;99.03;27.00;;;;;;;;;;6267798;23;20414;-96
2021/10/29 19:01:50;;;;;;;93.60;27.77;;;;;;;;;;6233125;23;20407;-95
2021/10/29 19:10:54;;;;;;;99.03;25.10;;;;;;;;;;6207607;23;20403;-96
2021/10/29 19:27:11;;;;;;;94.07;27.00;;;;;;;;;;6256957;22;20805;-96
2021/10/29 19:45:40;;;;;;;93.77;26.77;;;;;;;;;;6250697;22;20438;-96
2021/10/29 19:48:23;;;;;;;99.00;28.23;;;;;;;;;;6246564;22;20436;-95
2021/10/29 19:50:50;;;;;;;99.70;29.23;;;;;;;;;;6200194;22;21398;-95
2021/10/29 19:53:17;;;;;;;97.07;29.70;;;;;;;;;;6230389;22;20521;-96
2021/10/29 20:04:22;;;;;;;113.83;34.03;;;;;;;;;;6254012;22;20461;-96
2021/10/29 20:06:50;;;;;;;103.63;30.93;;;;;;;;;;6230155;23;20469;-96
2021/10/29 20:09:18;;;;;;;103.43;32.50;;;;;;;;;;6237676;23;20417;-96
2021/10/29 20:19:37;;;;;;;101.50;31.50;;;;;;;;;;6285678;22;20444;-96
2021/10/29 20:22:06;;;;;;;92.20;28.17;;;;;;;;;;6295716;22;20435;-96
2021/10/29 20:24:32;;;;;;;96.00;28.67;;;;;;;;;;6297100;22;20429;-96
2021/10/29 20:27:18;;;;;;;99.27;30.10;;;;;;;;;;6286614;22;20440;-96
2021/10/29 20:30:23;;;;;;;98.37;29.00;;;;;;;;;;6235545;23;20407;-96
2021/10/29 20:33:20;;;;;;;97.90;29.60;;;;;;;;;;6229707;23;20399;-96
2021/10/29 20:35:52;;;;;;;100.63;31.63;;;;;;;;;;6248699;22;20474;-96
2021/10/29 20:40:52;;;;;;;97.87;29.13;;;;;;;;;;6297460;22;20424;-96
2021/10/29 20:43:20;;;;;;;100.03;29.13;;;;;;;;;;6291512;22;20417;-96
2021/10/29 20:45:48;;;;;;;91.27;25.23;;;;;;;;;;6297036;22;20418;-96
2021/10/29 20:48:22;;;;;;;97.90;28.90;;;;;;;;;;6274253;22;20405;-96
2021/10/29 20:50:50;;;;;;;98.87;27.33;;;;;;;;;;6294537;22;20421;-96
2021/10/29 20:53:19;;;;;;;91.83;27.33;;;;;;;;;;6293282;22;20447;-96
2021/10/29 20:55:51;;;;;;;95.43;26.90;;;;;;;;;;6299635;22;20504;-96
2021/10/29 20:58:18;;;;;;;95.37;27.40;;;;;;;;;;6274345;22;20397;-96
2021/10/29 21:05:55;;;;;;;93.13;25.73;;;;;;;;;;6241168;22;20446;-96
2021/10/29 21:08:23;;;;;;;91.87;25.97;;;;;;;;;;6233306;23;20410;-96
2021/10/29 21:13:56;;;;;;;99.30;25.40;;;;;;;;;;6238776;23;20406;-96
2021/10/29 21:16:23;;;;;;;87.43;22.83;;;;;;;;;;6228059;23;20480;-96
2021/10/29 21:25:13;;;;;;;85.63;23.33;;;;;;;;;;6269511;23;20436;-96
2021/10/29 21:27:43;;;;;;;96.97;23.60;;;;;;;;;;6246543;23;20390;-96
2021/10/29 21:33:13;;;;;;;86.63;22.70;;;;;;;;;;6270848;22;20421;-96
2021/10/29 21:35:39;;;;;;;88.87;23.00;;;;;;;;;;6257357;22;20433;-96
2021/10/29 21:38:07;;;;;;;89.07;25.00;;;;;;;;;;6260163;23;20489;-96
2021/10/29 21:46:56;;;;;;;90.50;23.73;;;;;;;;;;6253939;23;20394;-97
2021/10/29 21:52:32;;;;;;;92.23;24.83;;;;;;;;;;6215187;22;21511;-96
2021/10/29 21:55:00;;;;;;;91.23;24.50;;;;;;;;;;6197871;23;20479;-96
2021/10/29 21:57:27;;;;;;;92.38;26.35;;;;;;;;;;6207609;23;20451;-96
2021/10/29 22:00:05;;;;;;;93.80;24.30;;;;;;;;;;6212043;23;20180;-96
2021/10/29 22:02:38;;;;;;;92.93;25.30;;;;;;;;;;6207669;23;20466;-96
2021/10/29 22:05:06;;;;;;;95.93;25.23;;;;;;;;;;6209600;23;20427;-96
2021/10/29 22:18:34;;;;;;;88.00;22.37;;;;;;;;;;6212190;22;21107;-96
2021/10/29 22:21:02;;;;;;;88.60;22.00;;;;;;;;;;6246338;23;20420;-96
2021/10/29 22:23:29;;;;;;;89.65;22.75;;;;;;;;;;6265894;23;20437;-96
2021/10/29 22:29:03;;;;;;;91.07;23.10;;;;;;;;;;6273688;23;20165;-96
2021/10/29 22:36:47;;;;;;;90.77;24.20;;;;;;;;;;6219648;22;20471;-96
2021/10/29 22:39:14;;;;;;;91.80;24.43;;;;;;;;;;6210587;23;20442;-96
2021/10/29 22:41:49;;;;;;;92.93;25.30;;;;;;;;;;6212128;23;20431;-96
2021/10/29 22:44:19;;;;;;;89.73;24.40;;;;;;;;;;6207992;23;20204;-96
2021/10/29 22:56:02;;;;;;;92.83;25.17;;;;;;;;;;6122202;23;20423;-96
2021/10/29 22:58:30;;;;;;;92.30;25.33;;;;;;;;;;6188829;23;20442;-96
2021/10/29 23:01:14;;;;;;;91.88;24.92;;;;;;;;;;6205902;23;20454;-96
2021/10/29 23:03:45;;;;;;;91.38;23.60;;;;;;;;;;6203419;23;20180;-96
2021/10/29 23:09:20;;;;;;;92.72;24.20;;;;;;;;;;6232497;22;20216;-96
2021/10/29 23:11:47;;;;;;;86.07;23.10;;;;;;;;;;6265200;23;20181;-96
2021/10/29 23:14:15;;;;;;;87.60;22.37;;;;;;;;;;6266762;23;20471;-96
2021/10/29 23:16:43;;;;;;;91.17;22.57;;;;;;;;;;6262028;23;20520;-96
2021/10/29 23:19:11;;;;;;;87.55;23.38;;;;;;;;;;6261228;23;20443;-96
2021/10/29 23:24:28;;;;;;;90.55;24.45;;;;;;;;;;6270411;23;20164;-96
2021/10/29 23:41:52;;;;;;;85.80;21.38;;;;;;;;;;6225166;22;20442;-96
2021/10/29 23:49:51;;;;;;;82.47;20.37;;;;;;;;;;6205429;23;20208;-96
2021/10/29 23:55:10;;;;;;;90.20;23.60;;;;;;;;;;6196163;23;20176;-96
2021/10/29 23:57:37;;;;;;;84.57;21.63;;;;;;;;;;6182607;23;20483;-96
